Flight Track Log - Related Links

Times and Time Zones

All times are in EDT time to prevent confusion due to time zone crossing. See the UAL326 flight status page for this flight to view local times or setup timezone preferences in your user account.

Time Position Orientation Groundspeed Altitude Reporting Facility
EDT Latitude Longitude Course Direction KTS MPH feet Rate Location/Type
Sat 06:58:12 PM 38.9833 -77.4333 293° West 176 203 1,700  Level Potomac TRACON
Sat 06:59:12 PM 39.0333 -77.4500 345° North 236 272 3,900 2,231 Climbing Potomac TRACON
Sat 07:00:00 PM 39.2553 -77.5305 349° North  Level FlightAware Approximate
Sat 07:00:13 PM 39.1000 -77.4667 349° North 271 312 6,200  Level Potomac TRACON
Sat 07:01:00 PM 39.3641 -77.5698 344° North  Level FlightAware Approximate
Sat 07:01:13 PM 39.1833 -77.5000 343° North 290 334 8,900  Level Potomac TRACON
Sat 07:02:00 PM 39.4579 -77.6147 288° West  Level FlightAware Approximate
Sat 07:03:00 PM 39.4953 -77.7526 293° West  Level FlightAware Approximate
Sat 07:03:24 PM 39.3703 -77.5647 345° North 331 381 12,800  Level Washington Center
Sat 07:04:22 PM 39.4633 -77.6183 336° Northwest 350 403 15,000 2,237 Climbing Washington Center
Sat 07:05:22 PM 39.4967 -77.7322 291° West 342 394 17,200 2,231 Climbing Washington Center
Sat 07:06:23 PM 39.5361 -77.8544 293° West 354 407 19,500 2,115 Climbing Washington Center
Sat 07:07:24 PM 39.5733 -77.9794 291° West 360 414 21,500 1,916 Climbing Washington Center
Sat 07:08:22 PM 39.6125 -78.1075 292° West 375 432 23,300 1,563 Climbing Washington Center
Sat 07:09:23 PM 39.6514 -78.2408 291° West 386 444 24,600 1,357 Climbing Washington Center
Sat 07:09:46 PM 39.6711 -78.2986 294° West 403 464 25,200 1,518 Climbing Cleveland Center
Sat 07:10:46 PM 39.7114 -78.4378 291° West 410 472 26,700 1,450 Climbing Cleveland Center
Sat 07:11:46 PM 39.7533 -78.5767 291° West 415 478 28,100 1,450 Climbing Cleveland Center
Sat 07:12:46 PM 39.8122 -78.7292 297° West 415 478 29,600 1,550 Climbing Cleveland Center
Sat 07:13:46 PM 39.8769 -78.8572 303° West 420 483 31,200 1,200 Climbing Cleveland Center
Sat 07:14:46 PM 39.9414 -78.9908 302° West 428 493 32,000 400 Climbing Cleveland Center
Sat 07:15:46 PM 40.0014 -79.1222 301° West 428 493 32,000  Level Cleveland Center
Sat 07:16:46 PM 40.0614 -79.2539 301° West 428 493 32,000  Level Cleveland Center
Sat 07:17:46 PM 40.1256 -79.3858 302° West 423 487 32,000  Level Cleveland Center
Sat 07:18:46 PM 40.1853 -79.5178 301° West 423 487 32,000  Level Cleveland Center
Sat 07:19:46 PM 40.2467 -79.6475 302° West 423 487 32,000  Level Cleveland Center
Sat 07:20:46 PM 40.3083 -79.7800 301° West 423 487 32,000  Level Cleveland Center
Sat 07:21:46 PM 40.3675 -79.9100 301° West 423 487 32,000  Level Cleveland Center
Sat 07:22:46 PM 40.4267 -80.0486 299° West 423 487 32,000  Level Cleveland Center
Sat 07:23:46 PM 40.4856 -80.1792 301° West 423 487 32,000  Level Cleveland Center
Sat 07:24:46 PM 40.5464 -80.3125 301° West 423 487 32,000  Level Cleveland Center
Sat 07:25:46 PM 40.6069 -80.4492 300° West 428 493 32,000  Level Cleveland Center
Sat 07:26:46 PM 40.6717 -80.5858 302° West 433 498 32,000  Level Cleveland Center
Sat 07:27:46 PM 40.7236 -80.7064 300° West 439 505 32,000  Level Cleveland Center
Sat 07:28:46 PM 40.7861 -80.8408 302° West 439 505 32,000  Level Cleveland Center
Sat 07:29:46 PM 40.8503 -80.9839 301° West 439 505 32,000  Level Cleveland Center
Sat 07:30:46 PM 40.9081 -81.1244 299° West 439 505 32,000  Level Cleveland Center
Sat 07:31:46 PM 40.9678 -81.2594 300° West 439 505 32,000  Level Cleveland Center
Sat 07:32:46 PM 41.0294 -81.4033 300° West 439 505 32,000  Level Cleveland Center
Sat 07:33:46 PM 41.0908 -81.5419 300° West 439 505 32,000  Level Cleveland Center
Sat 07:34:46 PM 41.1522 -81.6806 300° West 439 505 32,000  Level Cleveland Center
Sat 07:35:46 PM 41.2133 -81.8169 301° West 439 505 32,000  Level Cleveland Center
Sat 07:36:46 PM 41.2722 -81.9533 300° West 439 505 32,000  Level Cleveland Center
Sat 07:37:46 PM 41.3308 -82.0931 299° West 439 505 32,000  Level Cleveland Center
Sat 07:38:46 PM 41.4017 -82.2469 302° West 439 505 32,000  Level Cleveland Center
Sat 07:39:46 PM 41.4625 -82.3647 305° West 439 505 32,000  Level Cleveland Center
Sat 07:40:46 PM 41.5144 -82.5050 296° West 432 497 32,000  Level Cleveland Center
Sat 07:41:46 PM 41.5683 -82.6453 297° West 422 486 32,000  Level Cleveland Center
Sat 07:42:46 PM 41.6261 -82.7806 300° West 412 474 32,000  Level Cleveland Center
Sat 07:43:46 PM 41.7069 -82.9194 308° West 422 486 32,000 100 Level Cleveland Center
Sat 07:44:46 PM 41.7836 -83.0419 310° West 427 491 32,200 500 Climbing Cleveland Center
Sat 07:45:46 PM 41.8600 -83.1622 310° West 432 497 33,000 400 Climbing Cleveland Center
Sat 07:46:46 PM 41.9386 -83.2825 311° West 427 491 33,000 200 Level Cleveland Center
Sat 07:47:46 PM 42.0108 -83.4031 309° West 427 491 33,400 450 Climbing Cleveland Center
Sat 07:48:46 PM 42.0722 -83.5289 303° West 413 475 33,900 300 Climbing Cleveland Center
Sat 07:49:46 PM 42.1169 -83.6483 297° West 403 464 34,000 50 Climbing Cleveland Center
Sat 07:50:46 PM 42.1656 -83.7797 297° West 403 464 34,000  Level Cleveland Center
Sat 07:51:46 PM 42.2139 -83.9139 296° West 397 457 34,000 400 Level Cleveland Center
Sat 07:52:46 PM 42.2642 -84.0486 297° West 397 457 34,800 800 Climbing Cleveland Center
Sat 07:53:46 PM 42.3142 -84.1833 297° West 392 451 35,600 600 Climbing Cleveland Center
Sat 07:54:46 PM 42.3619 -84.3181 296° West 392 451 36,000 200 Climbing Cleveland Center
Sat 07:55:46 PM 42.4136 -84.4561 297° West 399 459 36,000  Level Cleveland Center
Sat 07:57:40 PM 42.5069 -84.7094 297° West 404 465 36,000  Level Chicago Center
Sat 07:58:41 PM 42.5578 -84.8497 296° West 414 476 36,000  Level Chicago Center
Sat 07:59:42 PM 42.6089 -84.9928 296° West 422 486 36,000  Level Chicago Center
Sat 08:00:44 PM 42.6614 -85.1372 296° West 428 493 36,000  Level Chicago Center
Sat 08:01:45 PM 42.7539 -85.2931 309° West 445 512 36,000  Level Chicago Center
Sat 08:02:46 PM 42.8383 -85.4153 313° West 446 513 36,000  Level Chicago Center
Sat 08:03:47 PM 42.9194 -85.5353 313° West 436 502 36,000  Level Chicago Center
Sat 08:04:48 PM 43.0008 -85.6581 312° West 438 504 36,000  Level Chicago Center
Sat 08:05:50 PM 43.0808 -85.7778 312° West 435 501 36,000  Level Chicago Center
Sat 08:06:51 PM 43.1589 -85.8967 312° West 433 498 36,000  Level Chicago Center
Sat 08:07:52 PM 43.2536 -86.0408 312° West 433 498 36,000  Level Chicago Center
Sat 08:08:53 PM 43.3336 -86.1628 312° West 434 499 36,000  Level Chicago Center
Sat 08:09:55 PM 43.4144 -86.2850 312° West 434 499 36,000  Level Chicago Center
Sat 08:10:56 PM 43.4961 -86.4097 312° West 441 507 36,000  Level Chicago Center
Sat 08:11:49 PM 43.5611 -86.5117 311° West 441 507 36,000  Level Minneapolis Center
Sat 08:12:51 PM 43.6428 -86.6372 312° West 441 507 36,000  Level Minneapolis Center
Sat 08:13:52 PM 43.7400 -86.7911 311° West 443 510 36,000  Level Minneapolis Center
Sat 08:14:53 PM 43.8222 -86.9175 312° West 444 511 36,000  Level Minneapolis Center
Sat 08:15:54 PM 43.9042 -87.0461 312° West 445 512 36,000  Level Minneapolis Center
Sat 08:16:55 PM 43.9844 -87.1742 311° West 445 512 36,000  Level Minneapolis Center
Sat 08:17:56 PM 44.0714 -87.3103 312° West 442 509 36,000  Level Minneapolis Center
Sat 08:18:57 PM 44.1492 -87.4397 310° West 438 504 36,000  Level Minneapolis Center
Sat 08:19:59 PM 44.1972 -87.5928 294° West 432 497 36,000  Level Minneapolis Center
Sat 08:21:00 PM 44.2369 -87.7500 289° West 431 496 36,000  Level Minneapolis Center
Sat 08:22:01 PM 44.2764 -87.9061 289° West 430 495 36,000  Level Minneapolis Center
Sat 08:23:02 PM 44.3158 -88.0639 289° West 430 495 36,000  Level Minneapolis Center
Sat 08:24:03 PM 44.3550 -88.2225 289° West 433 498 36,000  Level Minneapolis Center
Sat 08:25:04 PM 44.3997 -88.4056 289° West 428 493 36,000  Level Minneapolis Center
Sat 08:26:05 PM 44.4381 -88.5650 289° West 431 496 36,000  Level Minneapolis Center
Sat 08:27:07 PM 44.4767 -88.7208 289° West 428 493 36,000  Level Minneapolis Center
Sat 08:28:08 PM 44.5150 -88.8761 289° West 425 489 36,000  Level Minneapolis Center
Sat 08:29:09 PM 44.5522 -89.0356 288° West 428 493 36,000  Level Minneapolis Center
Sat 08:30:10 PM 44.5894 -89.1939 288° West 428 493 36,000  Level Minneapolis Center
Sat 08:31:11 PM 44.6267 -89.3539 288° West 430 495 36,000  Level Minneapolis Center
Sat 08:32:25 PM 44.6775 -89.5650 289° West 429 494 36,000  Level Minneapolis Center
Sat 08:33:26 PM 44.7011 -89.6714 287° West 428 493 36,000  Level Minneapolis Center
Sat 08:34:27 PM 44.7494 -89.8858 288° West 433 498 36,000  Level Minneapolis Center
Sat 08:35:29 PM 44.7861 -90.0472 288° West 433 498 36,000  Level Minneapolis Center
Sat 08:36:30 PM 44.8231 -90.2064 288° West 429 494 36,000  Level Minneapolis Center
Sat 08:37:31 PM 44.8575 -90.3606 288° West 425 489 36,000  Level Minneapolis Center
Sat 08:38:32 PM 44.8922 -90.5169 287° West 420 483 36,000  Level Minneapolis Center
Sat 08:39:34 PM 44.9267 -90.6747 287° West 420 483 36,000  Level Minneapolis Center
Sat 08:40:35 PM 44.9617 -90.8328 287° West 421 484 36,000  Level Minneapolis Center
Sat 08:41:36 PM 45.0019 -91.0175 287° West 420 483 36,000  Level Minneapolis Center
Sat 08:42:38 PM 45.0350 -91.1742 287° West 419 482 36,000  Level Minneapolis Center
Sat 08:43:39 PM 45.0689 -91.3314 287° West 420 483 36,000  Level Minneapolis Center
Sat 08:44:40 PM 45.1031 -91.4886 287° West 420 483 36,000  Level Minneapolis Center
Sat 08:45:42 PM 45.1369 -91.6472 287° West 421 484 36,000  Level Minneapolis Center
Sat 08:46:43 PM 45.1711 -91.8053 287° West 422 486 36,000  Level Minneapolis Center
Sat 08:47:44 PM 45.2028 -91.9633 286° West 421 484 36,000  Level Minneapolis Center
Sat 08:48:46 PM 45.2433 -92.1547 287° West 425 489 36,000  Level Minneapolis Center
Sat 08:49:47 PM 45.2747 -92.3119 286° West 419 482 36,000  Level Minneapolis Center
Sat 08:50:48 PM 45.3081 -92.4717 287° West 423 487 36,000  Level Minneapolis Center
Sat 08:51:50 PM 45.3389 -92.6300 286° West 421 484 36,000  Level Minneapolis Center
Sat 08:52:51 PM 45.3708 -92.7889 286° West 422 486 36,000  Level Minneapolis Center
Sat 08:53:52 PM 45.4019 -92.9458 286° West 419 482 36,000  Level Minneapolis Center
Sat 08:54:54 PM 45.4336 -93.1033 286° West 417 480 36,000  Level Minneapolis Center
Sat 08:55:55 PM 45.4692 -93.2911 285° West 413 475 36,000  Level Minneapolis Center
Sat 08:56:57 PM 45.4981 -93.4478 285° West 413 475 36,000  Level Minneapolis Center
Sat 08:57:58 PM 45.5283 -93.6036 286° West 412 474 36,000  Level Minneapolis Center
Sat 08:59:11 PM 45.5564 -93.7597 284° West 410 472 36,000  Level Minneapolis Center
Sat 09:00:14 PM 45.5922 -93.9469 285° West 409 471 36,000  Level Minneapolis Center
Sat 09:01:16 PM 45.6222 -94.1044 285° West 412 474 36,000  Level Minneapolis Center
Sat 09:02:17 PM 45.6583 -94.2928 285° West 412 474 36,000  Level Minneapolis Center
Sat 09:03:18 PM 45.6867 -94.4500 285° West 412 474 36,000  Level Minneapolis Center
Sat 09:04:20 PM 45.7150 -94.6067 285° West 410 472 36,000  Level Minneapolis Center
Sat 09:05:21 PM 45.7439 -94.7656 285° West 414 476 36,000  Level Minneapolis Center
Sat 09:06:22 PM 45.7719 -94.9253 284° West 416 479 36,000  Level Minneapolis Center
Sat 09:07:23 PM 45.8008 -95.0881 284° West 411 473 36,000  Level Minneapolis Center
Sat 09:08:25 PM 45.8281 -95.2503 284° West 417 480 36,000  Level Minneapolis Center
Sat 09:09:26 PM 45.8567 -95.4083 285° West 413 475 36,000  Level Minneapolis Center
Sat 09:10:27 PM 45.8833 -95.5689 283° West 414 476 36,000  Level Minneapolis Center
Sat 09:11:28 PM 45.9106 -95.7281 284° West 414 476 36,000  Level Minneapolis Center
Sat 09:12:30 PM 45.9431 -95.9200 284° West 414 476 36,000  Level Minneapolis Center
Sat 09:13:31 PM 45.9694 -96.0797 283° West 413 475 36,000  Level Minneapolis Center
Sat 09:14:32 PM 45.9961 -96.2389 284° West 412 474 36,000  Level Minneapolis Center
Sat 09:15:33 PM 46.0225 -96.3964 284° West 409 471 36,000  Level Minneapolis Center
Sat 09:16:34 PM 46.0475 -96.5561 283° West 409 471 36,000  Level Minneapolis Center
Sat 09:17:36 PM 46.0739 -96.7119 284° West 405 466 36,000  Level Minneapolis Center
Sat 09:18:37 PM 46.0986 -96.8692 283° West 405 466 36,000  Level Minneapolis Center
Sat 09:19:38 PM 46.1233 -97.0250 283° West 405 466 36,000  Level Minneapolis Center
Sat 09:20:39 PM 46.1475 -97.1853 282° West 408 470 36,000  Level Minneapolis Center
Sat 09:21:40 PM 46.1719 -97.3400 283° West 404 465 36,000  Level Minneapolis Center
Sat 09:22:41 PM 46.1994 -97.5256 282° West 400 460 36,000  Level Minneapolis Center
Sat 09:23:55 PM 46.2275 -97.7075 283° West 395 455 36,000  Level Minneapolis Center
Sat 09:24:56 PM 46.2517 -97.8644 283° West 394 453 36,000  Level Minneapolis Center
Sat 09:25:57 PM 46.2744 -98.0169 282° West 393 452 36,000  Level Minneapolis Center
Sat 09:27:10 PM 46.2964 -98.1625 282° West 384 442 36,000  Level Minneapolis Center
Sat 09:28:11 PM 46.3242 -98.3531 282° West 392 451 36,000  Level Minneapolis Center
Sat 09:29:12 PM 46.3469 -98.5100 282° West 397 457 36,000 -49 Level Minneapolis Center
Sat 09:30:13 PM 46.3686 -98.6675 281° West 398 458 35,900  Descending Minneapolis Center
Sat 09:31:14 PM 46.3900 -98.8250 281° West 398 458 36,000 49 Climbing Minneapolis Center
Sat 09:32:15 PM 46.4125 -98.9850 282° West 401 461 36,000  Level Minneapolis Center
Sat 09:33:16 PM 46.4292 -99.1119 281° West 402 463 36,000  Level Minneapolis Center
Sat 09:34:42 PM 46.4631 -99.3661 281° West 407 468 36,000  Level Minneapolis Center
Sat 09:35:43 PM 46.4889 -99.5606 281° West 409 471 36,000  Level Minneapolis Center
Sat 09:36:44 PM 46.5125 -99.7250 282° West 413 475 36,000  Level Minneapolis Center
Sat 09:37:45 PM 46.5333 -99.8906 280° West 417 480 36,000  Level Minneapolis Center
Sat 09:38:46 PM 46.5519 -100.0269 281° West 415 478 36,000  Level Minneapolis Center
Sat 09:39:47 PM 46.5711 -100.1836 280° West 412 474 36,000  Level Minneapolis Center
Sat 09:40:48 PM 46.5964 -100.3861 280° West 420 483 36,000  Level Minneapolis Center
Sat 09:41:49 PM 46.6175 -100.5525 281° West 421 484 36,000  Level Minneapolis Center
Sat 09:42:50 PM 46.6381 -100.7203 280° West 422 486 36,000  Level Minneapolis Center
Sat 09:43:51 PM 46.6583 -100.8903 280° West 425 489 36,000  Level Minneapolis Center
Sat 09:44:52 PM 46.6814 -101.0936 279° West 426 490 36,000  Level Minneapolis Center
Sat 09:45:53 PM 46.7028 -101.2628 281° West 426 490 36,000  Level Minneapolis Center
Sat 09:46:53 PM 46.7164 -101.4039 278° West 434 499 36,000  Level Minneapolis Center
Sat 09:47:55 PM 46.7394 -101.6108 279° West 434 499 36,000  Level Minneapolis Center
Sat 09:48:56 PM 46.7597 -101.7656 281° West 430 495 36,000  Level Minneapolis Center
Sat 09:49:56 PM 46.7747 -101.9036 279° West 430 495 36,000  Level Minneapolis Center
Sat 09:50:58 PM 46.8000 -102.1089 280° West 430 495 36,000  Level Minneapolis Center
Sat 09:51:58 PM 46.8186 -102.2800 279° West 429 494 36,000  Level Minneapolis Center
Sat 09:52:59 PM 46.8367 -102.4517 279° West 429 494 36,000  Level Minneapolis Center
Sat 09:54:00 PM 46.8544 -102.6203 279° West 424 488 36,000  Level Minneapolis Center
Sat 09:55:01 PM 46.8747 -102.8219 278° West 420 483 36,000 -49 Level Minneapolis Center
Sat 09:56:02 PM 46.8919 -102.9856 279° West 413 475 35,900  Descending Minneapolis Center
Sat 09:57:03 PM 46.9100 -103.1497 279° West 411 473 36,000  Climbing Minneapolis Center
Sat 09:58:04 PM 46.9256 -103.3131 278° West 407 468 35,900  Descending Minneapolis Center
Sat 09:58:53 PM 46.9358 -103.4475 276° West 409 471 36,000 55 Climbing Salt Lake Center
Sat 09:59:54 PM 46.9514 -103.6142 278° West 411 473 36,000  Level Salt Lake Center
Sat 10:00:55 PM 46.9678 -103.7769 278° West 409 471 36,000  Level Salt Lake Center
Sat 10:01:56 PM 46.9828 -103.9408 278° West 407 468 36,000  Level Salt Lake Center
Sat 10:02:57 PM 46.9981 -104.1078 278° West 408 470 36,000 -49 Level Salt Lake Center
Sat 10:03:58 PM 47.0125 -104.2783 277° West 414 476 35,900  Descending Salt Lake Center
Sat 10:04:59 PM 47.0267 -104.4461 277° West 416 479 36,000  Climbing Salt Lake Center
Sat 10:06:00 PM 47.0425 -104.6183 278° West 421 484 35,900  Descending Salt Lake Center
Sat 10:07:01 PM 47.0575 -104.7892 277° West 422 486 36,000 49 Climbing Salt Lake Center
Sat 10:08:02 PM 47.0717 -104.9578 277° West 421 484 36,000 -49 Level Salt Lake Center
Sat 10:09:03 PM 47.0864 -105.1281 277° West 420 483 35,900 -49 Descending Salt Lake Center
Sat 10:10:04 PM 47.0997 -105.2978 277° West 420 483 35,900  Level Salt Lake Center
Sat 10:11:05 PM 47.1172 -105.5053 277° West 425 489 35,900 49 Level Salt Lake Center
Sat 10:12:06 PM 47.1308 -105.6792 277° West 427 491 36,000 49 Climbing Salt Lake Center
Sat 10:13:07 PM 47.1436 -105.8497 276° West 424 488 36,000  Level Salt Lake Center
Sat 10:14:08 PM 47.1581 -106.0217 277° West 425 489 36,000  Level Salt Lake Center
Sat 10:15:09 PM 47.1706 -106.1956 276° West 427 491 36,000  Level Salt Lake Center
Sat 10:16:10 PM 47.1839 -106.3756 276° West 425 489 36,000  Level Salt Lake Center
Sat 10:17:11 PM 47.1942 -106.5394 275° West 424 488 36,000  Level Salt Lake Center
Sat 10:18:12 PM 47.2072 -106.7331 276° West 424 488 36,000  Level Salt Lake Center
Sat 10:19:13 PM 47.2183 -106.8969 276° West 423 487 36,000  Level Salt Lake Center
Sat 10:20:14 PM 47.2297 -107.0631 276° West 426 490 36,000  Level Salt Lake Center
Sat 10:21:15 PM 47.2417 -107.2544 275° West 424 488 36,000  Level Salt Lake Center
Sat 10:22:16 PM 47.2514 -107.4189 275° West 423 487 36,000  Level Salt Lake Center
Sat 10:23:17 PM 47.2625 -107.6106 275° West 421 484 36,000  Level Salt Lake Center
Sat 10:24:18 PM 47.2728 -107.7728 275° West 419 482 36,000  Level Salt Lake Center
Sat 10:25:19 PM 47.2817 -107.9364 275° West 419 482 36,000 -590 Level Salt Lake Center
Sat 10:26:20 PM 47.2928 -108.1267 275° West 419 482 34,800 -1,033 Descending Salt Lake Center
Sat 10:27:21 PM 47.3019 -108.2894 275° West 423 487 33,900 -393 Descending Salt Lake Center
Sat 10:28:22 PM 47.3097 -108.4664 274° West 431 496 34,000 49 Climbing Salt Lake Center
Sat 10:29:23 PM 47.3200 -108.6442 275° West 436 502 34,000  Level Salt Lake Center
Sat 10:30:24 PM 47.3272 -108.8222 273° West 436 502 34,000  Level Salt Lake Center
Sat 10:31:25 PM 47.3361 -108.9972 274° West 431 496 34,000  Level Salt Lake Center
Sat 10:32:26 PM 47.3439 -109.1744 274° West 435 501 34,000 -49 Level Salt Lake Center
Sat 10:33:27 PM 47.3519 -109.3500 274° West 432 497 33,900 -50 Descending Salt Lake Center
Sat 10:34:27 PM 47.3600 -109.5272 274° West 433 498 33,900 50 Level Salt Lake Center
Sat 10:35:28 PM 47.3689 -109.7397 274° West 433 498 34,000 49 Climbing Salt Lake Center
Sat 10:36:29 PM 47.3753 -109.9181 273° West 435 501 34,000 -49 Level Salt Lake Center
Sat 10:37:30 PM 47.3817 -110.0961 273° West 436 502 33,900  Descending Salt Lake Center
Sat 10:38:31 PM 47.3886 -110.2764 273° West 439 505 34,000 49 Climbing Salt Lake Center
Sat 10:39:32 PM 47.3967 -110.4550 274° West 439 505 34,000 -49 Level Salt Lake Center
Sat 10:40:33 PM 47.4022 -110.6358 273° West 441 507 33,900  Descending Salt Lake Center
Sat 10:41:34 PM 47.4078 -110.8178 273° West 442 509 34,000 49 Climbing Salt Lake Center
Sat 10:42:35 PM 47.4122 -111.0008 272° West 445 512 34,000  Level Salt Lake Center
Sat 10:43:36 PM 47.4172 -111.1842 272° West 442 509 34,000 -49 Level Salt Lake Center
Sat 10:44:37 PM 47.4222 -111.3683 272° West 442 509 33,900  Descending Salt Lake Center
Sat 10:45:38 PM 47.4269 -111.5519 272° West 442 509 34,000 49 Climbing Salt Lake Center
Sat 10:46:39 PM 47.4311 -111.7336 272° West 441 507 34,000 -49 Level Salt Lake Center
Sat 10:47:40 PM 47.4347 -111.9136 272° West 438 504 33,900 -50 Descending Salt Lake Center
Sat 10:48:40 PM 47.4389 -112.0917 272° West 435 501 33,900 50 Level Salt Lake Center
Sat 10:49:41 PM 47.4433 -112.2714 272° West 437 503 34,000 -443 Climbing Salt Lake Center
Sat 10:50:42 PM 47.4447 -112.4436 271° West 427 491 33,000 -1,623 Descending Salt Lake Center
Sat 10:51:43 PM 47.4483 -112.6244 272° West 434 499 30,700 -1,525 Descending Salt Lake Center
Sat 10:52:44 PM 47.4506 -112.8125 271° West 451 519 29,900 -344 Descending Salt Lake Center
Sat 10:53:45 PM 47.4542 -113.0056 272° West 462 532 30,000 49 Climbing Salt Lake Center
Sat 10:54:46 PM 47.4561 -113.1944 271° West 461 531 30,000  Level Salt Lake Center
Sat 10:55:46 PM 47.4578 -113.4183 271° West 456 525 30,000 -50 Level Salt Lake Center
Sat 10:56:47 PM 47.4603 -113.6047 271° West 454 522 29,900  Descending Salt Lake Center
Sat 10:57:48 PM 47.4608 -113.7917 270° West 455 524 30,000 49 Climbing Salt Lake Center
Sat 10:58:49 PM 47.4619 -113.9800 271° West 457 526 30,000 -148 Level Salt Lake Center
Sat 10:59:50 PM 47.4628 -114.1689 270° West 458 527 29,700 -787 Descending Salt Lake Center
Sat 11:00:51 PM 47.4633 -114.3575 270° West 457 526 28,400 -893 Descending Salt Lake Center
Sat 11:01:51 PM 47.4628 -114.5458 270° West 457 526 27,900 -198 Descending Salt Lake Center
Sat 11:02:52 PM 47.4619 -114.7375 270° West 463 533 28,000 49 Climbing Salt Lake Center
Sat 11:03:53 PM 47.4619 -114.9272 270° West 462 532 28,000  Level Salt Lake Center
Sat 11:04:54 PM 47.4608 -115.1172 270° West 462 532 28,000  Level Salt Lake Center
Sat 11:05:54 PM 47.4600 -115.3058 270° West 460 529 28,000  Level Salt Lake Center
Sat 11:06:55 PM 47.4578 -115.4950 269° West 460 529 28,000 -295 Level Salt Lake Center
Sat 11:07:56 PM 47.4578 -115.6819 270° West 456 525 27,400 -1,033 Descending Salt Lake Center
Sat 11:08:57 PM 47.4689 -115.8644 275° West 448 516 25,900 -744 Descending Salt Lake Center
Sat 11:09:57 PM 47.4819 -116.0483 276° West 449 517 25,900  Level Salt Lake Center
Sat 11:11:01 PM 47.4936 -116.2586 275° West 449 517 25,900 48 Level Seattle Center
Sat 11:12:02 PM 47.5036 -116.4433 275° West 452 520 26,000 49 Climbing Seattle Center
Sat 11:13:03 PM 47.5139 -116.6247 275° West 446 513 26,000 -50 Level Seattle Center
Sat 11:14:03 PM 47.5231 -116.8028 274° West 438 504 25,900 -50 Descending Seattle Center
Sat 11:15:04 PM 47.5328 -116.9792 275° West 431 496 25,900 50 Level Seattle Center
Sat 11:16:04 PM 47.5433 -117.1625 275° West 431 496 26,000  Climbing Seattle Center
Sat 11:17:05 PM 47.5503 -117.3117 274° West 432 497 25,900  Descending Seattle Center
Sat 11:18:05 PM 47.5606 -117.5233 274° West 431 496 26,000 50 Climbing Seattle Center
Sat 11:19:06 PM 47.5717 -117.6997 275° West 431 496 26,000  Level Seattle Center
Sat 11:20:06 PM 47.5889 -117.8767 278° West 435 501 26,000  Level Seattle Center
Sat 11:21:07 PM 47.6061 -118.0511 278° West 431 496 26,000  Level Seattle Center
Sat 11:22:08 PM 47.6222 -118.2269 278° West 433 498 26,000  Level Seattle Center
Sat 11:23:08 PM 47.6381 -118.4025 278° West 432 497 26,000 -50 Level Seattle Center
Sat 11:24:09 PM 47.6539 -118.5783 278° West 431 496 25,900  Descending Seattle Center
Sat 11:25:09 PM 47.6689 -118.7531 277° West 429 494 26,000  Climbing Seattle Center
Sat 11:26:10 PM 47.6839 -118.9278 277° West 429 494 25,900  Descending Seattle Center
Sat 11:27:10 PM 47.6989 -119.1025 277° West 429 494 26,000 50 Climbing Seattle Center
Sat 11:28:11 PM 47.7144 -119.2775 278° West 428 493 26,000  Level Seattle Center
Sat 11:29:11 PM 47.7289 -119.4522 277° West 428 493 26,000 -50 Level Seattle Center
Sat 11:30:12 PM 47.7419 -119.6256 276° West 425 489 25,900  Descending Seattle Center
Sat 11:31:12 PM 47.7547 -119.8014 276° West 427 491 26,000 50 Climbing Seattle Center
Sat 11:32:13 PM 47.7675 -119.9761 276° West 428 493 26,000  Level Seattle Center
Sat 11:33:13 PM 47.7803 -120.1514 276° West 429 494 26,000  Level Seattle Center
Sat 11:34:14 PM 47.7897 -120.3261 275° West 425 489 26,000 -99 Level Seattle Center
Sat 11:35:14 PM 47.7903 -120.5011 270° West 424 488 25,800 -1,190 Descending Seattle Center
Sat 11:36:15 PM 47.7883 -120.6753 269° West 421 484 23,600 -2,380 Descending Seattle Center
Sat 11:37:15 PM 47.7853 -120.8525 269° West 406 467 21,000 -2,529 Descending Seattle Center
Sat 11:38:16 PM 47.7856 -121.0131 270° West 394 453 18,500 -2,430 Descending Seattle Center
Sat 11:39:16 PM 47.7833 -121.1678 269° West 381 438 16,100 -2,491 Descending Seattle Center
Sat 11:40:02 PM 47.7811 -121.3014 269° West 369 425 14,100 -2,033 Descending Seattle Center
Sat 11:41:17 PM 47.7764 -121.4817 268° West 354 407 12,000 -933 Descending Seattle Center
Sat 11:42:17 PM 47.7733 -121.6161 268° West 329 379 12,000  Level Seattle Center
Sat 11:43:18 PM 47.7708 -121.7494 268° West 322 371 12,000 -496 Level Seattle Center
Sat 11:44:18 PM 47.7667 -121.8733 267° West 282 325 11,000 -1,785 Descending Seattle Center
Sat 11:45:19 PM 47.7594 -121.9833 264° West 269 310 8,400 -2,479 Descending Seattle Center
Sat 11:46:19 PM 47.7453 -122.0906 259° West 264 304 6,000 -1,835 Descending Seattle Center
Sat 11:47:20 PM 47.7169 -122.1869 246° West 256 295 4,700 -1,091 Descending Seattle Center
Sat 11:48:20 PM 47.6875 -122.2678 242° Southwest 224 258 3,800 -935 Descending Seattle Center
Sat 11:48:37 PM 47.6722 -122.2811 210° Southwest 205 236 3,500 -600 Descending Seattle Center
Sat 11:49:20 PM 47.6372 -122.3097 209° Southwest 210 242 3,200 -295 Descending Seattle Center
Sat 11:49:38 PM 47.6197 -122.3103 181° South 206 237 3,200 -393 Level Seattle Center
Sat 11:50:21 PM 47.5822 -122.3103 180° South 196 226 2,800 -558 Descending Seattle Center

Login

Don't have an account? Register now (free) for customized features, flight alerts, and more!